createdAt,value
2023-06-30T00:01:50.627Z,97823.41
2023-06-30T00:04:19.519Z,97827.00
2023-06-30T00:06:50.594Z,97822.06
2023-06-30T00:09:21.402Z,97821.25
2023-06-30T00:11:51.657Z,97820.56
2023-06-30T00:14:18.914Z,97817.72
2023-06-30T00:16:46.368Z,97805.41
2023-06-30T00:19:13.757Z,97819.28
2023-06-30T00:21:43.062Z,97818.41
2023-06-30T00:24:20.321Z,97810.63
2023-06-30T00:26:47.345Z,97814.50
2023-06-30T00:29:14.780Z,97806.69
2023-06-30T00:31:41.871Z,97802.63
2023-06-30T00:34:08.948Z,97797.31
2023-06-30T00:36:35.952Z,97792.56
2023-06-30T00:39:03.927Z,97787.63
2023-06-30T00:41:31.145Z,97779.97
2023-06-30T00:43:59.363Z,97774.53
2023-06-30T00:46:26.955Z,97773.72
2023-06-30T00:48:55.492Z,97767.91
2023-06-30T00:51:22.619Z,97769.81
2023-06-30T00:53:49.690Z,97768.28
2023-06-30T00:56:16.660Z,97767.28
2023-06-30T00:58:44.140Z,97770.69
2023-06-30T01:01:31.073Z,97760.34
2023-06-30T01:04:07.947Z,97759.25
2023-06-30T01:06:40.347Z,97762.78
2023-06-30T01:09:20.646Z,97755.97
2023-06-30T01:11:48.770Z,97756.41
2023-06-30T01:14:17.965Z,97763.25
2023-06-30T01:16:45.355Z,97750.34
2023-06-30T01:19:45.724Z,97747.53
2023-06-30T01:22:40.888Z,97742.13
2023-06-30T01:25:13.257Z,97742.88
2023-06-30T01:27:41.932Z,97744.84
2023-06-30T01:30:11.146Z,97738.84
2023-06-30T01:32:42.038Z,97737.72
2023-06-30T01:35:09.728Z,97739.22
2023-06-30T01:37:37.099Z,97734.75
2023-06-30T01:40:08.046Z,97739.47
2023-06-30T01:42:37.671Z,97732.84
2023-06-30T01:45:06.078Z,97737.06
2023-06-30T01:47:33.520Z,97735.28
2023-06-30T01:50:00.912Z,97728.03
2023-06-30T01:52:27.962Z,97735.66
2023-06-30T01:54:55.028Z,97732.84
2023-06-30T01:57:22.030Z,97730.25
2023-06-30T01:59:49.055Z,97725.72
2023-06-30T02:02:16.098Z,97722.75
2023-06-30T02:04:43.121Z,97725.28
2023-06-30T02:07:10.246Z,97728.00
2023-06-30T02:09:47.279Z,97718.47
2023-06-30T02:12:15.782Z,97722.88
2023-06-30T02:14:43.146Z,97720.25
2023-06-30T02:17:11.423Z,97720.22
2023-06-30T02:19:38.513Z,97721.81
2023-06-30T02:22:06.285Z,97721.72
2023-06-30T02:24:33.477Z,97730.94
2023-06-30T02:27:00.817Z,97731.91
2023-06-30T02:29:27.986Z,97731.63
2023-06-30T02:31:55.409Z,97727.63
2023-06-30T02:34:22.781Z,97724.41
2023-06-30T02:36:49.894Z,97735.31
2023-06-30T02:39:17.623Z,97736.72
2023-06-30T02:41:44.747Z,97733.16
2023-06-30T02:44:13.339Z,97726.59
2023-06-30T02:46:40.509Z,97731.06
2023-06-30T02:49:07.545Z,97732.53
2023-06-30T02:51:35.286Z,97738.22
2023-06-30T02:54:02.483Z,97733.91
2023-06-30T02:56:29.532Z,97736.47
2023-06-30T02:58:58.458Z,97732.88
2023-06-30T03:01:26.592Z,97728.19
2023-06-30T03:03:54.251Z,97722.56
2023-06-30T03:06:25.424Z,97720.56
2023-06-30T03:08:52.816Z,97726.22
2023-06-30T03:11:23.201Z,97727.31
2023-06-30T03:13:50.643Z,97724.47
2023-06-30T03:16:17.761Z,97724.75
2023-06-30T03:18:45.272Z,97728.59
2023-06-30T03:21:12.290Z,97725.88
2023-06-30T03:23:41.490Z,97716.44
2023-06-30T03:26:08.719Z,97720.22
2023-06-30T03:28:36.884Z,97712.25
2023-06-30T03:31:04.212Z,97710.06
2023-06-30T03:33:31.579Z,97705.03
2023-06-30T03:35:58.616Z,97698.84
2023-06-30T03:38:26.350Z,97694.75
2023-06-30T03:40:53.392Z,97691.91
2023-06-30T03:43:23.831Z,97696.13
2023-06-30T03:45:51.873Z,97695.16
2023-06-30T03:48:18.947Z,97683.81
2023-06-30T03:50:46.124Z,97686.88
2023-06-30T03:53:13.393Z,97684.41
2023-06-30T03:55:40.443Z,97684.75
2023-06-30T03:58:07.526Z,97687.47
2023-06-30T04:00:35.104Z,97686.88
2023-06-30T04:03:02.368Z,97683.13
2023-06-30T04:05:29.505Z,97683.78
2023-06-30T04:07:56.981Z,97688.34
2023-06-30T04:10:24.063Z,97686.88
2023-06-30T04:12:51.249Z,97686.69
2023-06-30T04:15:18.198Z,97688.69
2023-06-30T04:17:45.300Z,97694.41
2023-06-30T04:20:15.946Z,97692.94
2023-06-30T04:22:43.322Z,97688.41
2023-06-30T04:25:10.841Z,97698.06
2023-06-30T04:27:38.102Z,97687.31
2023-06-30T04:30:09.287Z,97697.25
2023-06-30T04:32:36.482Z,97693.16
2023-06-30T04:35:03.913Z,97692.38
2023-06-30T04:37:30.930Z,97688.47
2023-06-30T04:39:59.368Z,97678.00
2023-06-30T04:42:29.489Z,97684.56
2023-06-30T04:44:56.689Z,97683.91
2023-06-30T04:47:23.785Z,97690.81
2023-06-30T04:49:51.118Z,97683.88
2023-06-30T04:52:18.092Z,97688.59
2023-06-30T04:54:45.358Z,97688.25
2023-06-30T04:57:12.470Z,97682.84
2023-06-30T04:59:39.823Z,97679.16
2023-06-30T05:02:07.691Z,97680.28
2023-06-30T05:04:34.675Z,97680.34
2023-06-30T05:07:01.678Z,97680.56
2023-06-30T05:09:28.672Z,97689.78
2023-06-30T05:11:55.884Z,97691.25
2023-06-30T05:14:22.860Z,97698.84
2023-06-30T05:16:51.139Z,97702.53
2023-06-30T05:19:18.348Z,97704.69
2023-06-30T05:21:45.313Z,97701.59
2023-06-30T05:24:12.312Z,97706.50
2023-06-30T05:26:39.398Z,97704.66
2023-06-30T05:29:07.857Z,97700.47
2023-06-30T05:31:34.865Z,97698.50
2023-06-30T05:34:02.804Z,97697.47
2023-06-30T05:36:34.937Z,97700.59
2023-06-30T05:39:02.957Z,97699.66
2023-06-30T05:41:29.951Z,97705.00
2023-06-30T05:43:56.986Z,97713.34
2023-06-30T05:46:24.066Z,97717.31
2023-06-30T05:48:51.071Z,97713.22
2023-06-30T05:51:18.085Z,97724.50
2023-06-30T05:53:45.111Z,97722.59
2023-06-30T05:56:12.106Z,97735.59
2023-06-30T05:58:41.892Z,97734.31
2023-06-30T06:01:08.902Z,97739.84
2023-06-30T06:03:36.066Z,97744.78
2023-06-30T06:06:03.473Z,97752.78
2023-06-30T06:08:30.872Z,97764.78
2023-06-30T06:10:57.979Z,97768.13
2023-06-30T06:13:39.749Z,97772.41
2023-06-30T06:16:08.830Z,97777.75
2023-06-30T06:18:36.610Z,97782.28
2023-06-30T06:21:05.035Z,97787.81
2023-06-30T06:23:32.344Z,97785.66
2023-06-30T06:25:59.661Z,97792.56
2023-06-30T06:28:26.694Z,97799.22
2023-06-30T06:30:53.743Z,97798.59
2023-06-30T06:33:21.354Z,97806.44
2023-06-30T06:35:52.118Z,97790.53
2023-06-30T06:38:20.581Z,97799.91
2023-06-30T06:40:48.663Z,97798.63
2023-06-30T06:43:15.916Z,97797.41
2023-06-30T06:45:43.809Z,97794.38
2023-06-30T06:48:20.265Z,97787.41
2023-06-30T06:50:55.313Z,97791.31
2023-06-30T06:53:27.035Z,97790.63
2023-06-30T06:55:56.441Z,97785.53
2023-06-30T06:58:26.555Z,97779.59
2023-06-30T07:00:54.139Z,97780.97
2023-06-30T07:03:21.689Z,97773.78
2023-06-30T07:05:49.342Z,97768.22
2023-06-30T07:08:20.079Z,97766.66
2023-06-30T07:10:48.905Z,97768.50
2023-06-30T07:13:19.298Z,97766.41
2023-06-30T07:15:48.916Z,97775.44
2023-06-30T07:18:19.970Z,97771.06
2023-06-30T07:20:52.114Z,97775.03
2023-06-30T07:23:19.800Z,97771.38
2023-06-30T07:25:50.116Z,97770.44
2023-06-30T07:28:17.336Z,97777.00
2023-06-30T07:30:45.021Z,97773.97
2023-06-30T07:33:12.215Z,97782.81
2023-06-30T07:35:39.867Z,97773.97
2023-06-30T07:38:06.977Z,97777.53
2023-06-30T07:40:50.612Z,97771.25
2023-06-30T07:43:20.958Z,97779.78
2023-06-30T07:45:48.676Z,97779.19
2023-06-30T07:48:16.378Z,97782.34
2023-06-30T07:50:54.659Z,97787.03
2023-06-30T07:53:27.102Z,97784.53
2023-06-30T07:55:54.215Z,97796.88
2023-06-30T07:58:21.481Z,97790.13
2023-06-30T08:00:48.464Z,97794.75
2023-06-30T08:03:15.580Z,97790.78
2023-06-30T08:05:43.227Z,97799.16
2023-06-30T08:08:10.442Z,97801.44
2023-06-30T08:10:39.537Z,97815.44
2023-06-30T08:13:07.537Z,97818.53
2023-06-30T08:15:34.523Z,97830.50
2023-06-30T08:18:09.442Z,97839.44
2023-06-30T08:20:39.382Z,97846.50
2023-06-30T08:23:06.564Z,97844.28
2023-06-30T08:25:33.691Z,97851.66
2023-06-30T08:28:00.818Z,97844.91
2023-06-30T08:30:28.775Z,97854.78
2023-06-30T08:32:56.695Z,97860.09
2023-06-30T08:35:24.953Z,97853.69
2023-06-30T08:37:53.906Z,97847.84
2023-06-30T08:40:27.080Z,97847.00
2023-06-30T08:42:56.960Z,97849.00
2023-06-30T08:45:29.211Z,97849.59
2023-06-30T08:48:17.377Z,97847.34
2023-06-30T08:50:45.408Z,97852.06
2023-06-30T08:53:12.655Z,97851.66
2023-06-30T08:55:41.019Z,97849.09
2023-06-30T08:58:21.137Z,97854.13
2023-06-30T09:00:52.376Z,97850.88
2023-06-30T09:03:20.455Z,97855.59
2023-06-30T09:05:49.541Z,97855.13
2023-06-30T09:08:36.305Z,97857.00
2023-06-30T09:11:05.341Z,97856.72
2023-06-30T09:13:33.243Z,97854.28
2023-06-30T09:16:01.283Z,97855.16
2023-06-30T09:18:29.015Z,97851.56
2023-06-30T09:20:56.232Z,97856.22
2023-06-30T09:23:23.481Z,97862.78
2023-06-30T09:25:53.835Z,97853.97
2023-06-30T09:28:20.861Z,97856.31
2023-06-30T09:30:48.893Z,97850.78
2023-06-30T09:33:18.042Z,97845.75
2023-06-30T09:35:48.073Z,97850.69
2023-06-30T09:38:20.543Z,97843.28
2023-06-30T09:40:50.425Z,97846.50
2023-06-30T09:43:23.378Z,97841.34
2023-06-30T09:45:59.080Z,97839.13
2023-06-30T09:48:36.412Z,97842.09
2023-06-30T09:51:03.601Z,97846.09
2023-06-30T09:53:39.105Z,97834.72
2023-06-30T09:56:07.642Z,97829.41
2023-06-30T09:58:37.090Z,97824.78
2023-06-30T10:01:04.252Z,97827.22
2023-06-30T10:03:31.474Z,97822.41
2023-06-30T10:05:58.922Z,97833.03
2023-06-30T10:08:26.566Z,97828.34
2023-06-30T10:10:55.612Z,97822.00
2023-06-30T10:13:22.822Z,97833.50
2023-06-30T10:15:50.988Z,97832.22
2023-06-30T10:18:19.556Z,97827.69
2023-06-30T10:20:49.414Z,97835.72
2023-06-30T10:23:22.252Z,97827.59
2023-06-30T10:25:51.470Z,97819.97
2023-06-30T10:28:20.327Z,97820.38
2023-06-30T10:30:52.091Z,97821.78
2023-06-30T10:33:19.514Z,97821.13
2023-06-30T10:35:48.416Z,97824.00
2023-06-30T10:38:15.616Z,97826.69
2023-06-30T10:40:42.674Z,97827.13
2023-06-30T10:43:11.265Z,97827.19
2023-06-30T10:46:11.358Z,97821.78
2023-06-30T10:48:41.428Z,97827.47
2023-06-30T10:51:11.841Z,97818.16
2023-06-30T10:53:43.027Z,97821.78
2023-06-30T10:56:10.561Z,97817.22
2023-06-30T10:58:46.440Z,97824.25
2023-06-30T11:01:15.455Z,97827.34
2023-06-30T11:03:57.810Z,97826.75
2023-06-30T11:06:26.845Z,97827.06
2023-06-30T11:09:01.846Z,97830.22
2023-06-30T11:11:28.942Z,97847.38
2023-06-30T11:14:06.811Z,97840.41
2023-06-30T11:17:04.418Z,97837.84
2023-06-30T11:19:32.068Z,97836.13
2023-06-30T11:22:33.005Z,97826.59
2023-06-30T11:25:06.401Z,97820.44
2023-06-30T11:27:34.461Z,97817.75
2023-06-30T11:30:02.339Z,97816.22
2023-06-30T11:32:31.861Z,97814.84
2023-06-30T11:35:02.480Z,97813.69
2023-06-30T11:37:31.680Z,97816.88
2023-06-30T11:39:59.933Z,97814.16
2023-06-30T11:42:27.328Z,97814.81
2023-06-30T11:44:54.448Z,97811.69
2023-06-30T11:47:22.376Z,97809.50
2023-06-30T11:49:50.479Z,97816.19
2023-06-30T11:52:19.881Z,97813.13
2023-06-30T11:54:47.298Z,97810.09
2023-06-30T11:57:14.540Z,97802.75
2023-06-30T11:59:41.580Z,97807.91
2023-06-30T12:02:12.833Z,97811.69
2023-06-30T12:04:47.757Z,97816.28
2023-06-30T12:07:16.503Z,97808.97
2023-06-30T12:09:44.009Z,97812.53
2023-06-30T12:12:11.497Z,97808.97
2023-06-30T12:14:42.652Z,97807.19
2023-06-30T12:17:10.795Z,97808.97
2023-06-30T12:19:38.745Z,97809.06
2023-06-30T12:22:08.136Z,97811.28
2023-06-30T12:24:36.114Z,97816.78
2023-06-30T12:27:08.590Z,97811.28
2023-06-30T12:29:36.870Z,97810.78
2023-06-30T12:32:17.220Z,97813.84
2023-06-30T12:34:46.705Z,97812.03
2023-06-30T12:37:20.076Z,97813.81
2023-06-30T12:39:47.983Z,97817.50
2023-06-30T12:42:15.036Z,97818.69
2023-06-30T12:44:42.014Z,97808.59
2023-06-30T12:47:09.091Z,97808.50
2023-06-30T12:49:39.289Z,97807.59
2023-06-30T12:52:06.549Z,97801.38
2023-06-30T12:54:34.166Z,97797.94
2023-06-30T12:57:01.256Z,97811.44
2023-06-30T12:59:28.318Z,97796.53
2023-06-30T13:01:55.441Z,97804.03
2023-06-30T13:04:22.466Z,97799.47
2023-06-30T13:06:49.414Z,97810.78
2023-06-30T13:09:16.439Z,97801.25
2023-06-30T13:11:43.426Z,97807.41
2023-06-30T13:14:10.481Z,97800.59
2023-06-30T13:16:37.828Z,97793.63
2023-06-30T13:19:04.980Z,97796.13
2023-06-30T13:21:31.988Z,97805.59
2023-06-30T13:23:59.038Z,97803.47
2023-06-30T13:26:26.400Z,97794.84
2023-06-30T13:28:53.406Z,97793.72
2023-06-30T13:31:20.412Z,97794.53
2023-06-30T13:33:47.416Z,97794.34
2023-06-30T13:36:15.515Z,97797.09
2023-06-30T13:38:47.585Z,97792.63
2023-06-30T13:41:14.965Z,97796.19
2023-06-30T13:43:42.052Z,97782.91
2023-06-30T13:46:09.157Z,97786.09
2023-06-30T13:48:39.604Z,97775.72
2023-06-30T13:51:11.603Z,97779.31
2023-06-30T13:53:48.081Z,97771.22
2023-06-30T13:56:17.434Z,97767.91
2023-06-30T13:58:44.471Z,97773.53
2023-06-30T14:01:12.822Z,97766.44
2023-06-30T14:03:41.411Z,97772.56
2023-06-30T14:06:08.640Z,97773.41
2023-06-30T14:08:36.242Z,97762.38
2023-06-30T14:11:03.488Z,97765.06
2023-06-30T14:13:38.580Z,97761.09
2023-06-30T14:16:08.206Z,97748.06
2023-06-30T14:18:35.254Z,97754.09
2023-06-30T14:21:05.067Z,97751.22
2023-06-30T14:23:32.247Z,97754.69
2023-06-30T14:25:59.205Z,97751.94
2023-06-30T14:28:26.512Z,97748.38
2023-06-30T14:30:54.680Z,97738.06
2023-06-30T14:33:21.771Z,97741.91
2023-06-30T14:35:49.431Z,97744.53
2023-06-30T14:38:16.432Z,97737.00
2023-06-30T14:40:43.597Z,97740.09
2023-06-30T14:43:10.675Z,97735.13
2023-06-30T14:45:37.747Z,97746.44
2023-06-30T14:48:05.444Z,97741.50
2023-06-30T14:50:32.653Z,97741.09
2023-06-30T14:52:59.875Z,97752.75
2023-06-30T14:55:26.908Z,97752.16
2023-06-30T14:57:54.027Z,97751.22
2023-06-30T15:00:21.188Z,97749.00
2023-06-30T15:02:48.304Z,97751.56
2023-06-30T15:05:15.552Z,97750.41
2023-06-30T15:07:44.233Z,97749.06
2023-06-30T15:10:12.416Z,97750.34
2023-06-30T15:12:39.462Z,97740.34
2023-06-30T15:15:07.396Z,97742.56
2023-06-30T15:17:34.460Z,97734.78
2023-06-30T15:20:01.783Z,97735.38
2023-06-30T15:22:30.834Z,97735.78
2023-06-30T15:24:58.864Z,97737.00
2023-06-30T15:27:26.975Z,97734.41
2023-06-30T15:29:54.640Z,97736.13
2023-06-30T15:32:21.715Z,97723.91
2023-06-30T15:34:48.990Z,97725.50
2023-06-30T15:37:16.160Z,97720.69
2023-06-30T15:39:43.246Z,97716.38
2023-06-30T15:42:10.326Z,97723.41
2023-06-30T15:44:40.718Z,97725.72
2023-06-30T15:47:08.064Z,97719.06
2023-06-30T15:49:35.180Z,97716.34
2023-06-30T15:52:02.229Z,97704.22
2023-06-30T15:54:29.635Z,97711.75
2023-06-30T15:56:56.661Z,97704.13
2023-06-30T15:59:24.382Z,97708.22
2023-06-30T16:01:51.400Z,97707.34
2023-06-30T16:04:18.562Z,97708.69
2023-06-30T16:06:45.668Z,97717.22
2023-06-30T16:09:14.950Z,97704.31
2023-06-30T16:11:42.362Z,97710.75
2023-06-30T16:14:09.526Z,97710.44
2023-06-30T16:16:36.722Z,97705.34
2023-06-30T16:19:03.848Z,97703.56
2023-06-30T16:21:33.744Z,97704.03
2023-06-30T16:24:01.194Z,97700.22
2023-06-30T16:26:28.170Z,97710.53
2023-06-30T16:28:58.918Z,97704.94
2023-06-30T16:31:26.228Z,97704.97
2023-06-30T16:33:53.432Z,97700.28
2023-06-30T16:36:20.495Z,97698.50
2023-06-30T16:38:47.675Z,97691.81
2023-06-30T16:41:14.909Z,97695.47
2023-06-30T16:43:42.358Z,97692.75
2023-06-30T16:46:09.456Z,97699.41
2023-06-30T16:48:36.507Z,97694.06
2023-06-30T16:51:03.589Z,97691.91
2023-06-30T16:53:30.665Z,97698.41
2023-06-30T16:55:57.804Z,97699.38
2023-06-30T16:58:26.442Z,97699.38
2023-06-30T17:00:54.271Z,97703.88
2023-06-30T17:03:21.532Z,97693.34
2023-06-30T17:05:48.925Z,97695.00
2023-06-30T17:08:16.736Z,97699.50
2023-06-30T17:10:46.669Z,97695.53
2023-06-30T17:13:13.957Z,97697.78
2023-06-30T17:15:40.989Z,97709.59
2023-06-30T17:18:08.515Z,97709.69
2023-06-30T17:20:35.851Z,97710.19
2023-06-30T17:23:02.978Z,97711.41
2023-06-30T17:25:30.145Z,97709.63
2023-06-30T17:27:57.387Z,97705.63
2023-06-30T17:30:24.576Z,97706.28
2023-06-30T17:32:51.600Z,97706.38
2023-06-30T17:35:18.644Z,97708.19
2023-06-30T17:37:45.632Z,97706.78
2023-06-30T17:40:13.431Z,97702.06
2023-06-30T17:42:40.410Z,97709.78
2023-06-30T17:45:07.815Z,97701.00
2023-06-30T17:47:34.863Z,97699.72
2023-06-30T17:50:02.018Z,97701.50
2023-06-30T17:52:29.139Z,97710.00
2023-06-30T17:54:56.192Z,97705.50
2023-06-30T17:57:23.243Z,97706.91
2023-06-30T17:59:50.279Z,97714.97
2023-06-30T18:02:17.312Z,97710.63
2023-06-30T18:04:44.662Z,97706.09
2023-06-30T18:07:12.836Z,97705.16
2023-06-30T18:09:43.754Z,97704.94
2023-06-30T18:12:12.003Z,97712.50
2023-06-30T18:14:41.331Z,97708.69
2023-06-30T18:17:09.423Z,97710.84
2023-06-30T18:19:37.747Z,97712.91
2023-06-30T18:22:05.182Z,97717.75
2023-06-30T18:24:32.203Z,97714.38
2023-06-30T18:26:59.464Z,97719.38
2023-06-30T18:29:27.100Z,97718.66
2023-06-30T18:31:57.573Z,97725.56
2023-06-30T18:34:26.644Z,97729.78
2023-06-30T18:36:53.726Z,97726.88
2023-06-30T18:39:21.238Z,97731.84
2023-06-30T18:41:48.589Z,97739.00
2023-06-30T18:44:15.932Z,97737.59
2023-06-30T18:46:43.110Z,97747.38
2023-06-30T18:49:12.471Z,97735.00
2023-06-30T18:51:42.980Z,97735.22
2023-06-30T18:54:11.306Z,97747.34
2023-06-30T18:56:38.824Z,97748.19
2023-06-30T18:59:06.142Z,97750.44
2023-06-30T19:01:33.846Z,97750.47
2023-06-30T19:04:01.300Z,97756.50
2023-06-30T19:06:28.583Z,97760.16
2023-06-30T19:08:55.776Z,97744.19
2023-06-30T19:11:24.153Z,97755.63
2023-06-30T19:13:53.858Z,97763.63
2023-06-30T19:16:21.636Z,97773.22
2023-06-30T19:18:49.147Z,97763.25
2023-06-30T19:21:16.649Z,97770.25
2023-06-30T19:23:43.977Z,97771.94
2023-06-30T19:26:12.164Z,97764.41
2023-06-30T19:28:42.573Z,97762.75
2023-06-30T19:31:10.023Z,97772.81
2023-06-30T19:33:38.015Z,97774.34
2023-06-30T19:36:05.951Z,97779.44
2023-06-30T19:38:33.213Z,97779.69
2023-06-30T19:41:00.316Z,97788.19
2023-06-30T19:43:30.287Z,97784.16
2023-06-30T19:45:57.323Z,97795.59
2023-06-30T19:48:24.356Z,97800.66
2023-06-30T19:50:51.705Z,97797.06
2023-06-30T19:53:18.824Z,97797.44
2023-06-30T19:55:46.575Z,97792.00
2023-06-30T19:58:14.100Z,97802.41
2023-06-30T20:00:41.080Z,97806.38
2023-06-30T20:03:08.581Z,97801.53
2023-06-30T20:05:36.838Z,97808.81
2023-06-30T20:08:04.377Z,97810.78
2023-06-30T20:10:31.907Z,97810.63
2023-06-30T20:12:59.292Z,97808.44
2023-06-30T20:15:27.017Z,97811.03
2023-06-30T20:17:54.598Z,97819.88
2023-06-30T20:20:21.757Z,97802.34
2023-06-30T20:22:48.878Z,97799.34
2023-06-30T20:25:16.154Z,97810.03
2023-06-30T20:27:45.864Z,97808.91
2023-06-30T20:30:13.635Z,97808.44
2023-06-30T20:32:40.755Z,97802.25
2023-06-30T20:35:10.003Z,97807.31
2023-06-30T20:37:37.189Z,97812.88
2023-06-30T20:40:05.023Z,97817.69
2023-06-30T20:42:32.024Z,97816.91
2023-06-30T20:44:59.042Z,97811.44
2023-06-30T20:47:26.511Z,97811.03
2023-06-30T20:49:53.888Z,97809.00
2023-06-30T20:52:21.031Z,97819.44
2023-06-30T20:54:48.017Z,97809.22
2023-06-30T20:57:15.024Z,97815.13
2023-06-30T20:59:42.442Z,97811.56
2023-06-30T21:02:09.569Z,97808.06
2023-06-30T21:04:36.932Z,97807.84
2023-06-30T21:07:04.442Z,97809.63
2023-06-30T21:09:31.464Z,97804.84
2023-06-30T21:11:58.462Z,97810.78
2023-06-30T21:14:25.511Z,97801.44
2023-06-30T21:16:52.555Z,97807.22
2023-06-30T21:19:19.615Z,97801.09
2023-06-30T21:21:46.734Z,97802.78
2023-06-30T21:24:13.707Z,97801.44
2023-06-30T21:26:42.398Z,97807.97
2023-06-30T21:29:12.270Z,97810.03
2023-06-30T21:31:39.511Z,97814.03
2023-06-30T21:34:06.642Z,97805.34
2023-06-30T21:36:35.132Z,97805.19
2023-06-30T21:39:04.563Z,97812.72
2023-06-30T21:41:31.687Z,97814.13
2023-06-30T21:43:58.676Z,97808.53
2023-06-30T21:46:26.035Z,97808.09
2023-06-30T21:48:53.967Z,97812.81
2023-06-30T21:51:21.279Z,97810.03
2023-06-30T21:53:48.268Z,97803.28
2023-06-30T21:56:15.278Z,97812.13
2023-06-30T21:58:42.341Z,97795.88
2023-06-30T22:01:09.534Z,97798.16
2023-06-30T22:03:36.756Z,97797.31
2023-06-30T22:06:03.886Z,97798.03
2023-06-30T22:08:30.833Z,97795.88
2023-06-30T22:11:01.257Z,97790.28
2023-06-30T22:13:28.684Z,97788.59
2023-06-30T22:15:55.701Z,97789.38
2023-06-30T22:18:22.762Z,97790.34
2023-06-30T22:20:49.972Z,97791.16
2023-06-30T22:23:17.315Z,97799.91
2023-06-30T22:25:44.319Z,97795.09
2023-06-30T22:28:11.530Z,97797.16
2023-06-30T22:30:38.599Z,97794.66
2023-06-30T22:33:05.646Z,97799.19
2023-06-30T22:35:32.719Z,97807.28
2023-06-30T22:37:59.746Z,97803.78
2023-06-30T22:40:26.769Z,97805.69
2023-06-30T22:42:54.967Z,97803.81
2023-06-30T22:45:22.065Z,97797.66
2023-06-30T22:47:49.136Z,97798.16
2023-06-30T22:50:16.263Z,97795.63
2023-06-30T22:52:43.266Z,97806.63
2023-06-30T22:55:10.698Z,97804.84
2023-06-30T22:57:37.902Z,97792.09
2023-06-30T23:00:07.445Z,97798.31
2023-06-30T23:02:34.489Z,97792.97
2023-06-30T23:05:01.751Z,97796.13
2023-06-30T23:07:29.172Z,97792.97
2023-06-30T23:09:56.346Z,97801.19
2023-06-30T23:12:23.407Z,97793.41
2023-06-30T23:14:50.412Z,97802.75
2023-06-30T23:17:17.628Z,97789.28
2023-06-30T23:19:51.413Z,97792.88
2023-06-30T23:22:19.230Z,97788.38
2023-06-30T23:24:51.410Z,97791.16
2023-06-30T23:27:19.881Z,97794.59
2023-06-30T23:29:50.654Z,97790.59
2023-06-30T23:32:21.769Z,97790.84
2023-06-30T23:34:49.375Z,97784.66
2023-06-30T23:37:18.259Z,97784.47
2023-06-30T23:39:48.460Z,97786.38
2023-06-30T23:42:15.658Z,97791.66
2023-06-30T23:44:42.798Z,97785.75
2023-06-30T23:47:17.714Z,97791.41
2023-06-30T23:49:47.333Z,97804.06
2023-06-30T23:52:14.640Z,97800.44
2023-06-30T23:54:44.760Z,97802.66
2023-06-30T23:57:12.057Z,97805.91
2023-06-30T23:59:39.179Z,97801.66
